createdAt,value
2023-05-11T00:00:34.684Z,14.80
2023-05-11T00:03:01.388Z,14.83
2023-05-11T00:05:27.989Z,14.70
2023-05-11T00:07:54.534Z,14.78
2023-05-11T00:10:21.246Z,14.76
2023-05-11T00:12:47.793Z,14.63
2023-05-11T00:15:14.452Z,14.56
2023-05-11T00:17:43.293Z,14.50
2023-05-11T00:20:12.356Z,14.39
2023-05-11T00:22:39.271Z,14.44
2023-05-11T00:25:06.768Z,14.37
2023-05-11T00:27:33.450Z,14.39
2023-05-11T00:30:00.033Z,14.32
2023-05-11T00:32:26.888Z,14.44
2023-05-11T00:34:53.454Z,14.39
2023-05-11T00:37:20.071Z,14.44
2023-05-11T00:39:46.604Z,14.51
2023-05-11T00:42:13.189Z,14.47
2023-05-11T00:44:39.768Z,14.42
2023-05-11T00:47:07.359Z,14.45
2023-05-11T00:49:34.158Z,14.40
2023-05-11T00:52:03.097Z,14.41
2023-05-11T00:54:30.949Z,14.40
2023-05-11T00:56:57.586Z,14.48
2023-05-11T00:59:24.439Z,14.53
2023-05-11T01:01:51.359Z,14.53
2023-05-11T01:04:18.102Z,14.51
2023-05-11T01:07:03.202Z,14.64
2023-05-11T01:09:29.752Z,14.69
2023-05-11T01:12:07.497Z,14.65
2023-05-11T01:14:41.579Z,14.60
2023-05-11T01:17:15.007Z,14.60
2023-05-11T01:19:46.939Z,14.59
2023-05-11T01:22:48.655Z,14.60
2023-05-11T01:25:34.802Z,14.55
2023-05-11T01:28:20.465Z,14.57
2023-05-11T01:30:57.751Z,14.57
2023-05-11T01:33:33.154Z,14.69
2023-05-11T01:36:04.454Z,14.63
2023-05-11T01:38:35.544Z,14.56
2023-05-11T01:41:12.349Z,14.64
2023-05-11T01:43:40.841Z,14.57
2023-05-11T01:46:10.381Z,14.56
2023-05-11T01:48:40.862Z,14.65
2023-05-11T01:51:08.929Z,14.66
2023-05-11T01:53:38.468Z,14.52
2023-05-11T01:56:06.253Z,14.31
2023-05-11T01:58:34.533Z,14.40
2023-05-11T02:01:04.014Z,14.40
2023-05-11T02:03:35.560Z,14.36
2023-05-11T02:06:05.383Z,14.23
2023-05-11T02:08:33.876Z,14.33
2023-05-11T02:11:02.984Z,14.43
2023-05-11T02:13:30.635Z,14.44
2023-05-11T02:16:01.338Z,14.48
2023-05-11T02:18:30.124Z,14.40
2023-05-11T02:20:59.086Z,14.34
2023-05-11T02:23:27.703Z,14.35
2023-05-11T02:25:55.382Z,14.34
2023-05-11T02:28:22.508Z,14.40
2023-05-11T02:30:56.911Z,14.40
2023-05-11T02:33:30.889Z,14.38
2023-05-11T02:35:59.255Z,14.41
2023-05-11T02:38:37.493Z,14.34
2023-05-11T02:41:11.811Z,14.27
2023-05-11T02:43:42.351Z,14.26
2023-05-11T02:46:15.151Z,14.33
2023-05-11T02:48:45.423Z,14.40
2023-05-11T02:51:15.938Z,14.39
2023-05-11T02:53:50.463Z,14.39
2023-05-11T02:56:17.972Z,14.37
2023-05-11T02:58:44.544Z,14.35
2023-05-11T03:01:22.114Z,14.34
2023-05-11T03:03:48.942Z,14.40
2023-05-11T03:06:15.811Z,14.32
2023-05-11T03:08:43.015Z,14.27
2023-05-11T03:11:12.485Z,14.22
2023-05-11T03:13:39.323Z,14.27
2023-05-11T03:16:07.908Z,14.28
2023-05-11T03:18:36.747Z,14.23
2023-05-11T03:21:05.149Z,14.29
2023-05-11T03:23:32.761Z,14.21
2023-05-11T03:26:00.431Z,14.30
2023-05-11T03:28:28.719Z,14.30
2023-05-11T03:31:01.707Z,14.24
2023-05-11T03:33:30.326Z,14.29
2023-05-11T03:35:59.983Z,14.43
2023-05-11T03:38:30.713Z,14.41
2023-05-11T03:40:58.413Z,14.33
2023-05-11T03:43:30.045Z,14.35
2023-05-11T03:45:57.912Z,14.41
2023-05-11T03:48:26.001Z,14.45
2023-05-11T03:50:53.127Z,14.45
2023-05-11T03:53:20.718Z,14.42
2023-05-11T03:55:48.187Z,14.40
2023-05-11T03:58:15.038Z,14.38
2023-05-11T04:00:42.987Z,14.38
2023-05-11T04:03:09.999Z,14.39
2023-05-11T04:05:38.241Z,14.39
2023-05-11T04:08:08.189Z,14.30
2023-05-11T04:10:35.015Z,14.31
2023-05-11T04:13:02.351Z,14.34
2023-05-11T04:15:29.892Z,14.15
2023-05-11T04:17:56.538Z,14.27
2023-05-11T04:20:23.104Z,14.37
2023-05-11T04:22:49.790Z,14.35
2023-05-11T04:25:16.579Z,14.43
2023-05-11T04:27:43.238Z,14.40
2023-05-11T04:30:10.147Z,14.35
2023-05-11T04:32:36.801Z,14.37
2023-05-11T04:35:03.891Z,14.39
2023-05-11T04:37:34.416Z,14.38
2023-05-11T04:40:04.307Z,14.31
2023-05-11T04:42:36.154Z,14.31
2023-05-11T04:45:05.371Z,14.37
2023-05-11T04:47:31.970Z,14.27
2023-05-11T04:49:59.297Z,14.35
2023-05-11T04:52:25.928Z,14.40
2023-05-11T04:54:53.079Z,14.41
2023-05-11T04:57:19.860Z,14.51
2023-05-11T04:59:47.781Z,14.50
2023-05-11T05:02:14.436Z,14.57
2023-05-11T05:04:41.001Z,14.46
2023-05-11T05:07:07.841Z,14.25
2023-05-11T05:09:34.425Z,14.47
2023-05-11T05:12:01.575Z,14.48
2023-05-11T05:14:28.154Z,14.50
2023-05-11T05:16:54.832Z,14.38
2023-05-11T05:19:21.822Z,14.44
2023-05-11T05:21:50.187Z,14.49
2023-05-11T05:24:16.789Z,14.56
2023-05-11T05:26:43.483Z,14.62
2023-05-11T05:29:12.079Z,14.67
2023-05-11T05:31:38.709Z,14.63
2023-05-11T05:34:06.556Z,14.63
2023-05-11T05:36:33.457Z,14.68
2023-05-11T05:39:00.035Z,14.70
2023-05-11T05:41:26.972Z,14.75
2023-05-11T05:43:54.412Z,14.83
2023-05-11T05:46:21.755Z,14.82
2023-05-11T05:48:48.787Z,14.80
2023-05-11T05:51:16.270Z,14.84
2023-05-11T05:53:43.595Z,14.81
2023-05-11T05:56:10.197Z,14.81
2023-05-11T05:58:36.739Z,14.82
2023-05-11T06:01:03.561Z,14.86
2023-05-11T06:03:30.305Z,14.84
2023-05-11T06:05:57.186Z,14.85
2023-05-11T06:08:24.427Z,14.76
2023-05-11T06:10:51.021Z,14.82
2023-05-11T06:13:17.752Z,14.81
2023-05-11T06:15:44.602Z,14.87
2023-05-11T06:18:23.221Z,14.95
2023-05-11T06:20:49.893Z,14.92
2023-05-11T06:23:17.803Z,14.92
2023-05-11T06:25:44.739Z,15.05
2023-05-11T06:28:11.977Z,15.01
2023-05-11T06:30:39.529Z,14.99
2023-05-11T06:33:08.523Z,14.99
2023-05-11T06:35:38.632Z,15.10
2023-05-11T06:38:08.247Z,15.07
2023-05-11T06:40:36.300Z,15.07
2023-05-11T06:43:02.924Z,15.00
2023-05-11T06:45:45.182Z,15.07
2023-05-11T06:48:12.289Z,14.99
2023-05-11T06:50:38.953Z,15.04
2023-05-11T06:53:05.534Z,14.78
2023-05-11T06:55:32.412Z,14.96
2023-05-11T06:57:59.458Z,14.93
2023-05-11T07:00:26.170Z,15.04
2023-05-11T07:02:52.934Z,14.93
2023-05-11T07:05:19.612Z,15.10
2023-05-11T07:07:46.379Z,15.21
2023-05-11T07:10:12.953Z,15.24
2023-05-11T07:12:39.582Z,15.22
2023-05-11T07:15:07.093Z,14.99
2023-05-11T07:17:33.720Z,15.10
2023-05-11T07:20:00.406Z,15.30
2023-05-11T07:22:26.969Z,15.42
2023-05-11T07:24:53.601Z,15.32
2023-05-11T07:27:20.113Z,15.38
2023-05-11T07:29:46.674Z,15.45
2023-05-11T07:32:13.233Z,15.22
2023-05-11T07:34:41.161Z,15.37
2023-05-11T07:37:08.335Z,15.46
2023-05-11T07:39:35.125Z,15.56
2023-05-11T07:42:01.713Z,15.65
2023-05-11T07:44:28.312Z,15.57
2023-05-11T07:46:55.057Z,15.61
2023-05-11T07:49:28.228Z,15.58
2023-05-11T07:52:06.343Z,15.71
2023-05-11T07:54:32.985Z,15.60
2023-05-11T07:57:01.199Z,15.63
2023-05-11T07:59:27.791Z,15.56
2023-05-11T08:01:54.814Z,15.56
2023-05-11T08:04:21.381Z,15.49
2023-05-11T08:06:48.287Z,15.56
2023-05-11T08:09:15.340Z,15.47
2023-05-11T08:11:41.939Z,15.69
2023-05-11T08:14:08.536Z,15.63
2023-05-11T08:16:37.041Z,15.81
2023-05-11T08:19:03.826Z,15.68
2023-05-11T08:21:30.579Z,15.80
2023-05-11T08:23:57.131Z,15.84
2023-05-11T08:26:23.813Z,15.96
2023-05-11T08:28:52.076Z,15.97
2023-05-11T08:31:18.900Z,15.92
2023-05-11T08:33:45.719Z,15.93
2023-05-11T08:36:15.500Z,15.99
2023-05-11T08:38:42.177Z,16.00
2023-05-11T08:41:12.381Z,16.12
2023-05-11T08:43:40.200Z,16.18
2023-05-11T08:46:08.626Z,16.11
2023-05-11T08:48:35.948Z,16.27
2023-05-11T08:51:04.322Z,16.07
2023-05-11T08:53:30.958Z,16.10
2023-05-11T08:55:59.345Z,16.23
2023-05-11T08:58:27.313Z,16.41
2023-05-11T09:00:54.834Z,16.43
2023-05-11T09:03:22.393Z,16.04
2023-05-11T09:05:49.628Z,16.39
2023-05-11T09:08:18.682Z,16.23
2023-05-11T09:10:45.431Z,16.52
2023-05-11T09:13:12.208Z,16.72
2023-05-11T09:15:39.046Z,16.62
2023-05-11T09:18:06.019Z,16.55
2023-05-11T09:20:34.246Z,16.57
2023-05-11T09:23:02.255Z,16.50
2023-05-11T09:25:33.521Z,16.66
2023-05-11T09:28:00.580Z,16.69
2023-05-11T09:30:27.638Z,16.81
2023-05-11T09:32:59.608Z,16.91
2023-05-11T09:35:30.594Z,16.87
2023-05-11T09:38:07.824Z,16.80
2023-05-11T09:40:39.726Z,16.80
2023-05-11T09:43:21.374Z,16.70
2023-05-11T09:45:50.019Z,16.95
2023-05-11T09:48:16.930Z,17.03
2023-05-11T09:50:43.784Z,17.00
2023-05-11T09:53:11.089Z,16.74
2023-05-11T09:55:38.056Z,16.71
2023-05-11T09:58:04.740Z,16.41
2023-05-11T10:00:32.140Z,16.41
2023-05-11T10:03:03.152Z,16.30
2023-05-11T10:05:31.928Z,16.00
2023-05-11T10:08:00.902Z,15.92
2023-05-11T10:10:29.670Z,15.76
2023-05-11T10:12:58.871Z,15.57
2023-05-11T10:15:31.905Z,15.34
2023-05-11T10:18:01.039Z,15.13
2023-05-11T10:20:27.917Z,15.10
2023-05-11T10:22:55.993Z,15.13
2023-05-11T10:25:23.737Z,15.06
2023-05-11T10:27:51.286Z,15.30
2023-05-11T10:30:18.215Z,15.49
2023-05-11T10:32:49.299Z,15.35
2023-05-11T10:35:16.345Z,15.26
2023-05-11T10:37:43.392Z,15.17
2023-05-11T10:40:12.017Z,15.33
2023-05-11T10:43:13.542Z,15.41
2023-05-11T10:46:00.342Z,15.30
2023-05-11T10:49:08.306Z,15.27
2023-05-11T10:51:44.114Z,15.12
2023-05-11T10:54:16.803Z,15.26
2023-05-11T10:57:13.226Z,15.22
2023-05-11T11:00:08.979Z,15.48
2023-05-11T11:02:36.103Z,15.28
2023-05-11T11:05:05.862Z,15.44
2023-05-11T11:07:32.669Z,15.47
2023-05-11T11:10:05.094Z,15.33
2023-05-11T11:12:34.767Z,15.43
2023-05-11T11:15:06.555Z,15.54
2023-05-11T11:17:35.393Z,15.53
2023-05-11T11:20:04.683Z,15.61
2023-05-11T11:22:34.488Z,15.53
2023-05-11T11:25:15.012Z,15.63
2023-05-11T11:27:41.662Z,15.65
2023-05-11T11:30:19.066Z,15.86
2023-05-11T11:32:48.072Z,15.89
2023-05-11T11:35:39.889Z,15.69
2023-05-11T11:38:29.239Z,15.72
2023-05-11T11:40:56.311Z,15.78
2023-05-11T11:43:28.610Z,15.86
2023-05-11T11:46:00.149Z,15.95
2023-05-11T11:48:31.257Z,16.02
2023-05-11T11:51:08.347Z,16.29
2023-05-11T11:53:38.320Z,15.94
2023-05-11T11:56:07.496Z,16.03
2023-05-11T11:58:46.496Z,16.21
2023-05-11T12:01:24.353Z,16.22
2023-05-11T12:04:13.623Z,16.27
2023-05-11T12:06:41.298Z,16.11
2023-05-11T12:09:08.539Z,15.91
2023-05-11T12:11:35.309Z,15.85
2023-05-11T12:14:03.088Z,15.75
2023-05-11T12:16:29.946Z,15.89
2023-05-11T12:19:01.543Z,15.88
2023-05-11T12:21:33.799Z,16.08
2023-05-11T12:24:03.036Z,16.21
2023-05-11T12:26:31.536Z,16.34
2023-05-11T12:29:08.928Z,16.40
2023-05-11T12:31:40.271Z,16.45
2023-05-11T12:34:07.240Z,16.18
2023-05-11T12:36:35.003Z,16.18
2023-05-11T12:39:01.606Z,16.21
2023-05-11T12:41:28.224Z,16.25
2023-05-11T12:43:56.067Z,16.57
2023-05-11T12:46:23.400Z,16.36
2023-05-11T12:48:51.561Z,16.15
2023-05-11T12:51:55.849Z,16.47
2023-05-11T12:54:27.709Z,16.52
2023-05-11T12:56:54.416Z,16.31
2023-05-11T12:59:27.787Z,16.09
2023-05-11T13:01:54.504Z,16.33
2023-05-11T13:04:31.330Z,16.12
2023-05-11T13:06:57.998Z,16.22
2023-05-11T13:09:25.850Z,16.28
2023-05-11T13:12:18.929Z,16.37
2023-05-11T13:14:47.646Z,16.27
2023-05-11T13:17:29.697Z,16.29
2023-05-11T13:19:56.305Z,16.34
2023-05-11T13:22:23.139Z,16.32
2023-05-11T13:24:50.991Z,16.58
2023-05-11T13:27:17.662Z,16.39
2023-05-11T13:29:44.251Z,16.37
2023-05-11T13:32:12.353Z,16.40
2023-05-11T13:34:38.894Z,16.77
2023-05-11T13:37:05.581Z,16.59
2023-05-11T13:39:32.146Z,16.56
2023-05-11T13:41:58.862Z,16.68
2023-05-11T13:44:25.474Z,16.82
2023-05-11T13:46:52.125Z,16.72
2023-05-11T13:49:18.737Z,16.61
2023-05-11T13:51:45.366Z,16.89
2023-05-11T13:54:13.115Z,16.73
2023-05-11T13:56:39.826Z,16.50
2023-05-11T13:59:07.137Z,16.39
2023-05-11T14:01:33.767Z,16.45
2023-05-11T14:04:00.466Z,16.46
2023-05-11T14:06:27.089Z,16.58
2023-05-11T14:08:53.829Z,16.69
2023-05-11T14:11:21.462Z,16.66
2023-05-11T14:13:48.346Z,16.73
2023-05-11T14:16:15.103Z,16.87
2023-05-11T14:18:42.204Z,16.70
2023-05-11T14:21:08.869Z,16.52
2023-05-11T14:23:37.617Z,16.35
2023-05-11T14:26:05.650Z,16.45
2023-05-11T14:28:32.214Z,16.59
2023-05-11T14:30:58.888Z,16.55
2023-05-11T14:33:25.855Z,16.67
2023-05-11T14:35:53.830Z,16.73
2023-05-11T14:38:20.488Z,16.49
2023-05-11T14:40:47.702Z,16.62
2023-05-11T14:43:14.386Z,16.70
2023-05-11T14:45:41.394Z,16.75
2023-05-11T14:48:08.265Z,16.83
2023-05-11T14:50:34.933Z,16.86
2023-05-11T14:53:01.848Z,16.94
2023-05-11T14:55:30.543Z,17.00
2023-05-11T14:57:57.389Z,16.95
2023-05-11T15:00:23.944Z,16.95
2023-05-11T15:02:52.025Z,16.92
2023-05-11T15:05:18.809Z,16.73
2023-05-11T15:07:45.628Z,16.64
2023-05-11T15:10:14.846Z,16.65
2023-05-11T15:12:41.581Z,16.80
2023-05-11T15:15:08.847Z,16.87
2023-05-11T15:17:36.177Z,16.54
2023-05-11T15:20:03.156Z,16.32
2023-05-11T15:22:29.767Z,16.38
2023-05-11T15:24:56.324Z,16.40
2023-05-11T15:27:22.863Z,16.26
2023-05-11T15:29:49.562Z,16.50
2023-05-11T15:32:17.470Z,16.41
2023-05-11T15:34:54.955Z,16.55
2023-05-11T15:37:23.667Z,16.40
2023-05-11T15:39:51.331Z,16.50
2023-05-11T15:42:17.916Z,16.48
2023-05-11T15:44:44.501Z,16.55
2023-05-11T15:47:11.126Z,16.63
2023-05-11T15:49:37.721Z,16.52
2023-05-11T15:52:04.829Z,16.64
2023-05-11T15:54:31.727Z,16.79
2023-05-11T15:56:59.174Z,16.81
2023-05-11T15:59:25.796Z,16.56
2023-05-11T16:01:53.233Z,16.70
2023-05-11T16:04:19.801Z,16.64
2023-05-11T16:06:46.524Z,16.67
2023-05-11T16:09:13.104Z,16.54
2023-05-11T16:11:40.670Z,16.59
2023-05-11T16:14:07.311Z,16.51
2023-05-11T16:16:33.997Z,16.43
2023-05-11T16:19:00.752Z,16.48
2023-05-11T16:21:27.365Z,16.18
2023-05-11T16:23:54.293Z,16.35
2023-05-11T16:26:20.936Z,16.36
2023-05-11T16:28:47.548Z,16.28
2023-05-11T16:31:15.429Z,16.28
2023-05-11T16:33:42.125Z,16.30
2023-05-11T16:36:08.996Z,16.08
2023-05-11T16:38:35.823Z,16.11
2023-05-11T16:41:02.449Z,16.12
2023-05-11T16:43:29.164Z,16.15
2023-05-11T16:45:55.828Z,16.08
2023-05-11T16:48:22.449Z,15.98
2023-05-11T16:50:49.380Z,16.11
2023-05-11T16:53:15.966Z,15.97
2023-05-11T16:55:42.594Z,15.85
2023-05-11T16:58:09.680Z,15.68
2023-05-11T17:00:36.599Z,15.82
2023-05-11T17:03:03.310Z,15.64
2023-05-11T17:05:30.215Z,15.90
2023-05-11T17:07:56.834Z,15.98
2023-05-11T17:10:23.530Z,16.07
2023-05-11T17:12:50.191Z,15.93
2023-05-11T17:15:17.033Z,16.00
2023-05-11T17:17:43.622Z,16.07
2023-05-11T17:20:13.543Z,15.68
2023-05-11T17:22:40.192Z,15.64
2023-05-11T17:25:07.211Z,15.73
2023-05-11T17:27:36.337Z,15.75
2023-05-11T17:30:04.359Z,15.52
2023-05-11T17:32:31.476Z,15.52
2023-05-11T17:34:58.412Z,15.46
2023-05-11T17:37:31.838Z,15.51
2023-05-11T17:40:00.161Z,15.20
2023-05-11T17:42:27.021Z,15.32
2023-05-11T17:44:54.387Z,15.34
2023-05-11T17:47:21.196Z,15.35
2023-05-11T17:49:47.824Z,15.29
2023-05-11T17:52:15.123Z,15.31
2023-05-11T17:54:42.179Z,15.41
2023-05-11T17:57:08.807Z,15.33
2023-05-11T17:59:35.402Z,15.23
2023-05-11T18:02:02.019Z,15.28
2023-05-11T18:04:29.744Z,15.32
2023-05-11T18:06:56.386Z,15.17
2023-05-11T18:09:23.011Z,15.21
2023-05-11T18:11:49.621Z,15.35
2023-05-11T18:14:16.566Z,15.29
2023-05-11T18:16:43.463Z,15.28
2023-05-11T18:19:10.440Z,15.18
2023-05-11T18:21:37.980Z,15.01
2023-05-11T18:24:04.905Z,14.90
2023-05-11T18:26:31.674Z,15.18
2023-05-11T18:28:59.573Z,15.28
2023-05-11T18:31:26.250Z,15.16
2023-05-11T18:33:52.872Z,15.13
2023-05-11T18:36:19.544Z,14.91
2023-05-11T18:38:48.743Z,14.82
2023-05-11T18:41:15.479Z,14.88
2023-05-11T18:43:45.300Z,15.09
2023-05-11T18:46:11.854Z,15.03
2023-05-11T18:48:39.109Z,15.15
2023-05-11T18:51:06.420Z,14.82
2023-05-11T18:53:33.339Z,14.77
2023-05-11T18:56:00.002Z,14.92
2023-05-11T18:58:27.094Z,14.78
2023-05-11T19:00:53.762Z,14.88
2023-05-11T19:03:21.924Z,14.83
2023-05-11T19:05:49.467Z,14.88
2023-05-11T19:08:16.634Z,14.81
2023-05-11T19:10:45.178Z,14.74
2023-05-11T19:13:12.993Z,14.87
2023-05-11T19:15:40.226Z,14.75
2023-05-11T19:18:07.109Z,14.77
2023-05-11T19:20:34.763Z,14.89
2023-05-11T19:23:01.795Z,14.93
2023-05-11T19:25:28.475Z,14.90
2023-05-11T19:27:57.156Z,14.92
2023-05-11T19:30:24.675Z,14.78
2023-05-11T19:32:51.328Z,14.79
2023-05-11T19:35:19.027Z,14.75
2023-05-11T19:37:48.027Z,14.75
2023-05-11T19:42:46.000Z,14.73
2023-05-11T19:45:15.598Z,14.81
2023-05-11T19:47:42.227Z,14.77
2023-05-11T19:50:09.245Z,14.75
2023-05-11T19:52:36.759Z,14.55
2023-05-11T19:55:04.413Z,14.66
2023-05-11T19:57:37.026Z,14.61
2023-05-11T20:00:05.579Z,14.64
2023-05-11T20:02:32.599Z,14.73
2023-05-11T20:04:59.872Z,14.62
2023-05-11T20:07:27.528Z,14.67
2023-05-11T20:09:54.842Z,14.59
2023-05-11T20:12:21.458Z,14.56
2023-05-11T20:14:48.174Z,14.61
2023-05-11T20:17:14.848Z,14.74
2023-05-11T20:19:41.604Z,14.86
2023-05-11T20:22:08.180Z,14.88
2023-05-11T20:24:34.748Z,14.76
2023-05-11T20:27:05.639Z,14.67
2023-05-11T20:29:32.221Z,14.73
2023-05-11T20:31:58.856Z,14.86
2023-05-11T20:34:25.501Z,14.96
2023-05-11T20:36:53.938Z,14.94
2023-05-11T20:39:21.978Z,14.87
2023-05-11T20:41:50.068Z,14.76
2023-05-11T20:44:17.642Z,14.88
2023-05-11T20:46:44.574Z,14.77
2023-05-11T20:49:16.722Z,14.80
2023-05-11T20:51:51.247Z,14.64
2023-05-11T20:54:18.102Z,14.64
2023-05-11T20:56:44.682Z,14.76
2023-05-11T21:00:03.830Z,14.83
2023-05-11T21:01:59.256Z,14.92
2023-05-11T21:04:26.034Z,14.96
2023-05-11T21:06:55.567Z,14.96
2023-05-11T21:09:21.996Z,14.95
2023-05-11T21:11:48.977Z,14.91
2023-05-11T21:14:15.790Z,14.83
2023-05-11T21:16:42.783Z,14.92
2023-05-11T21:19:09.593Z,14.91
2023-05-11T21:21:36.272Z,15.02
2023-05-11T21:24:03.896Z,14.94
2023-05-11T21:26:30.486Z,14.89
2023-05-11T21:28:57.354Z,15.01
2023-05-11T21:31:24.075Z,14.99
2023-05-11T21:33:51.842Z,14.97
2023-05-11T21:36:18.591Z,14.93
2023-05-11T21:38:45.238Z,15.02
2023-05-11T21:41:11.909Z,14.99
2023-05-11T21:43:38.459Z,14.96
2023-05-11T21:46:05.263Z,14.91
2023-05-11T21:48:31.960Z,14.86
2023-05-11T21:50:58.536Z,14.83
2023-05-11T21:53:25.096Z,14.88
2023-05-11T21:55:51.649Z,14.90
2023-05-11T21:58:18.278Z,14.87
2023-05-11T22:00:45.278Z,14.96
2023-05-11T22:03:12.096Z,14.91
2023-05-11T22:05:38.771Z,14.87
2023-05-11T22:08:14.066Z,14.89
2023-05-11T22:10:42.894Z,14.84
2023-05-11T22:13:09.530Z,14.91
2023-05-11T22:15:36.274Z,14.83
2023-05-11T22:18:03.559Z,14.75
2023-05-11T22:20:31.671Z,14.79
2023-05-11T22:22:59.118Z,14.80
2023-05-11T22:25:25.914Z,14.66
2023-05-11T22:27:52.639Z,14.68
2023-05-11T22:30:19.912Z,14.68
2023-05-11T22:32:47.201Z,14.74
2023-05-11T22:35:13.905Z,14.69
2023-05-11T22:37:40.470Z,14.53
2023-05-11T22:40:07.740Z,14.58
2023-05-11T22:42:34.729Z,14.44
2023-05-11T22:45:01.341Z,14.51
2023-05-11T22:47:28.037Z,14.57
2023-05-11T22:49:54.883Z,14.65
2023-05-11T22:52:22.625Z,14.63
2023-05-11T22:54:55.240Z,14.55
2023-05-11T22:57:23.900Z,14.54
2023-05-11T22:59:50.648Z,14.61
2023-05-11T23:02:17.317Z,14.43
2023-05-11T23:04:44.306Z,14.49
2023-05-11T23:07:12.718Z,14.45
2023-05-11T23:09:39.398Z,14.40
2023-05-11T23:12:06.243Z,14.48
2023-05-11T23:14:32.815Z,14.50
2023-05-11T23:16:59.470Z,14.37
2023-05-11T23:19:26.209Z,14.41
2023-05-11T23:21:53.106Z,14.47
2023-05-11T23:24:19.666Z,14.45
2023-05-11T23:26:46.293Z,14.38
2023-05-11T23:29:12.899Z,14.36
2023-05-11T23:31:42.789Z,14.42
2023-05-11T23:34:09.433Z,14.46
2023-05-11T23:36:36.025Z,14.46
2023-05-11T23:39:02.628Z,14.50
2023-05-11T23:41:29.281Z,14.52
2023-05-11T23:43:55.877Z,14.43
2023-05-11T23:46:22.393Z,14.46
2023-05-11T23:48:48.987Z,14.50
2023-05-11T23:51:16.504Z,14.51
2023-05-11T23:53:43.227Z,14.46
2023-05-11T23:56:09.948Z,14.46
2023-05-11T23:58:36.504Z,14.24
